Time;durP1;ratioP1;P1;durP2;ratioP2;P2;SDS_P1;SDS_P2;PMS_P1;PMS_P2;Temp;Humidity;BMP_temperature;BMP_pressure;BME280_temperature;BME280_humidity;BME280_pressure;Samples;Min_cycle;Max_cycle;Signal;HPM_P1;HPM_P2
2022/04/08 00:00:04;;;;;;;7.17;2.60;;;;;;;;;;1761503;81;21009;-69
2022/04/08 00:02:31;;;;;;;7.90;2.50;;;;;;;;;;1761316;81;21542;-69
2022/04/08 00:04:58;;;;;;;7.85;2.10;;;;;;;;;;1761244;81;21678;-70
2022/04/08 00:07:24;;;;;;;8.40;2.58;;;;;;;;;;1761334;81;21068;-70
2022/04/08 00:09:51;;;;;;;6.05;2.35;;;;;;;;;;1761372;81;21052;-70
2022/04/08 00:12:18;;;;;;;5.42;2.87;;;;;;;;;;1761350;81;21057;-70
2022/04/08 00:14:44;;;;;;;8.33;2.58;;;;;;;;;;1761291;81;21057;-70
2022/04/08 00:17:10;;;;;;;5.87;2.45;;;;;;;;;;1761286;81;21032;-70
2022/04/08 00:19:37;;;;;;;9.43;2.37;;;;;;;;;;1761424;81;21096;-70
2022/04/08 00:22:05;;;;;;;8.43;2.50;;;;;;;;;;1761105;81;21567;-70
2022/04/08 00:24:33;;;;;;;7.03;2.67;;;;;;;;;;1761624;81;21029;-70
2022/04/08 00:26:59;;;;;;;7.78;1.98;;;;;;;;;;1761003;81;21559;-69
2022/04/08 00:29:27;;;;;;;10.88;2.60;;;;;;;;;;1761108;81;21052;-70
2022/04/08 00:31:57;;;;;;;10.85;2.70;;;;;;;;;;1761417;81;21092;-69
2022/04/08 00:34:25;;;;;;;7.08;2.50;;;;;;;;;;1761223;81;21079;-70
2022/04/08 00:36:51;;;;;;;9.25;2.50;;;;;;;;;;1761366;81;21028;-69
2022/04/08 00:39:18;;;;;;;6.60;2.60;;;;;;;;;;1761273;81;21108;-69
2022/04/08 00:41:45;;;;;;;7.70;2.17;;;;;;;;;;1761468;81;21056;-70
2022/04/08 00:44:11;;;;;;;6.42;2.30;;;;;;;;;;1761108;81;21114;-70
2022/04/08 00:46:41;;;;;;;5.97;2.40;;;;;;;;;;1761408;81;21044;-70
2022/04/08 00:49:08;;;;;;;10.65;2.77;;;;;;;;;;1761291;81;21509;-70
2022/04/08 00:51:34;;;;;;;9.20;2.70;;;;;;;;;;1761357;81;21492;-70
2022/04/08 00:54:01;;;;;;;8.23;2.40;;;;;;;;;;1761491;81;21618;-70
2022/04/08 00:56:28;;;;;;;7.85;2.92;;;;;;;;;;1761372;81;21541;-70
2022/04/08 00:58:56;;;;;;;5.03;2.00;;;;;;;;;;1761520;81;21132;-70
2022/04/08 01:04:07;;;;;;;6.28;3.20;;;;;;;;;;1786204;76;74765;-71
2022/04/08 01:06:34;;;;;;;6.87;2.40;;;;;;;;;;1811008;78;21503;-71
2022/04/08 01:10:23;;;;;;;6.33;2.33;;;;;;;;;;1819733;79;23443;-70
2022/04/08 01:12:50;;;;;;;10.08;2.62;;;;;;;;;;1793108;80;21515;-70
2022/04/08 01:15:17;;;;;;;4.22;2.52;;;;;;;;;;1792879;80;21566;-71
2022/04/08 01:17:44;;;;;;;6.42;2.70;;;;;;;;;;1793049;80;21563;-71
2022/04/08 01:20:12;;;;;;;9.93;2.72;;;;;;;;;;1792908;80;21080;-71
2022/04/08 01:22:38;;;;;;;9.40;2.98;;;;;;;;;;1792984;80;21563;-71
2022/04/08 01:25:06;;;;;;;6.80;2.30;;;;;;;;;;1793179;80;21494;-71
2022/04/08 01:27:32;;;;;;;11.45;2.62;;;;;;;;;;1793144;80;21071;-71
2022/04/08 01:29:59;;;;;;;5.83;2.83;;;;;;;;;;1792758;80;21031;-71
2022/04/08 01:32:25;;;;;;;8.35;2.90;;;;;;;;;;1793151;80;21063;-71
2022/04/08 01:34:53;;;;;;;6.30;2.52;;;;;;;;;;1792776;80;21096;-71
2022/04/08 01:37:20;;;;;;;6.22;2.50;;;;;;;;;;1793197;80;21080;-70
2022/04/08 01:39:46;;;;;;;8.23;2.62;;;;;;;;;;1792989;80;21024;-71
2022/04/08 01:42:12;;;;;;;8.30;2.83;;;;;;;;;;1793222;80;21094;-71
2022/04/08 01:44:38;;;;;;;12.10;2.80;;;;;;;;;;1792766;80;21032;-71
2022/04/08 01:47:05;;;;;;;6.45;2.25;;;;;;;;;;1793058;80;21359;-71
2022/04/08 01:49:31;;;;;;;6.25;2.47;;;;;;;;;;1793094;80;21052;-71
2022/04/08 01:51:57;;;;;;;10.15;2.92;;;;;;;;;;1793250;80;21495;-71
2022/04/08 01:54:23;;;;;;;6.40;2.47;;;;;;;;;;1792970;80;21032;-71
2022/04/08 01:56:49;;;;;;;5.67;2.17;;;;;;;;;;1792991;80;21503;-71
2022/04/08 01:59:15;;;;;;;10.03;3.02;;;;;;;;;;1792754;80;22191;-72
2022/04/08 02:01:42;;;;;;;8.55;3.12;;;;;;;;;;1793110;80;21547;-71
2022/04/08 02:04:09;;;;;;;9.50;2.75;;;;;;;;;;1792815;79;21114;-72
2022/04/08 02:06:40;;;;;;;10.98;2.60;;;;;;;;;;1792984;80;21106;-71
2022/04/08 02:09:04;;;;;;;6.95;2.27;;;;;;;;;;1790568;80;21111;-71
2022/04/08 02:11:32;;;;;;;11.03;2.62;;;;;;;;;;1787860;80;21465;-71
2022/04/08 02:13:58;;;;;;;8.65;2.42;;;;;;;;;;1787899;80;21575;-71
2022/04/08 02:16:24;;;;;;;11.80;3.45;;;;;;;;;;1787878;80;21547;-71
2022/04/08 02:18:51;;;;;;;6.53;2.95;;;;;;;;;;1787868;80;21005;-72
2022/04/08 02:21:19;;;;;;;8.45;3.12;;;;;;;;;;1787376;80;21114;-72
2022/04/08 02:23:46;;;;;;;8.83;2.87;;;;;;;;;;1787090;80;21059;-72
2022/04/08 02:26:14;;;;;;;9.28;3.00;;;;;;;;;;1787243;80;21033;-71
2022/04/08 02:28:41;;;;;;;5.30;2.90;;;;;;;;;;1787407;80;21656;-71
2022/04/08 02:31:07;;;;;;;4.87;2.60;;;;;;;;;;1787309;80;21028;-71
2022/04/08 02:33:34;;;;;;;10.65;2.83;;;;;;;;;;1787381;80;21064;-70
2022/04/08 02:36:00;;;;;;;12.25;2.95;;;;;;;;;;1787292;80;21071;-71
2022/04/08 02:38:27;;;;;;;6.10;2.37;;;;;;;;;;1787200;80;21106;-71
2022/04/08 02:43:38;;;;;;;8.08;2.83;;;;;;;;;;1787154;80;21032;-72
2022/04/08 02:46:04;;;;;;;8.68;2.95;;;;;;;;;;1787505;80;21060;-71
2022/04/08 02:48:30;;;;;;;7.72;2.67;;;;;;;;;;1787107;80;21643;-71
2022/04/08 02:50:57;;;;;;;7.55;2.72;;;;;;;;;;1787273;80;21533;-71
2022/04/08 02:53:23;;;;;;;6.53;3.08;;;;;;;;;;1787074;80;20997;-71
2022/04/08 02:55:49;;;;;;;5.95;2.72;;;;;;;;;;1787516;80;21028;-71
2022/04/08 02:58:16;;;;;;;9.25;3.30;;;;;;;;;;1758686;80;21032;-70
2022/04/08 03:00:42;;;;;;;6.45;2.85;;;;;;;;;;1787476;80;21033;-70
2022/04/08 03:03:09;;;;;;;8.05;2.72;;;;;;;;;;1787388;79;21122;-70
2022/04/08 03:05:35;;;;;;;7.58;2.98;;;;;;;;;;1787439;80;21052;-71
2022/04/08 03:08:02;;;;;;;7.00;3.02;;;;;;;;;;1787637;80;21112;-71
2022/04/08 03:10:30;;;;;;;8.08;2.77;;;;;;;;;;1787190;80;21037;-70
2022/04/08 03:12:57;;;;;;;7.37;3.05;;;;;;;;;;1787320;80;21068;-70
2022/04/08 03:15:23;;;;;;;10.13;3.10;;;;;;;;;;1786914;80;21080;-70
2022/04/08 03:17:51;;;;;;;5.15;2.98;;;;;;;;;;1787362;80;20973;-71
2022/04/08 03:20:17;;;;;;;7.33;2.85;;;;;;;;;;1787073;80;21540;-71
2022/04/08 03:22:44;;;;;;;6.50;2.92;;;;;;;;;;1787181;80;21094;-70
2022/04/08 03:25:11;;;;;;;7.12;2.58;;;;;;;;;;1787144;80;21087;-71
2022/04/08 03:27:38;;;;;;;9.40;2.85;;;;;;;;;;1786965;80;21064;-71
2022/04/08 03:30:05;;;;;;;11.00;3.50;;;;;;;;;;1787155;80;21127;-71
2022/04/08 03:32:31;;;;;;;6.03;2.90;;;;;;;;;;1786791;80;21029;-71
2022/04/08 03:34:59;;;;;;;7.87;2.60;;;;;;;;;;1787077;80;21507;-70
2022/04/08 03:37:25;;;;;;;7.70;2.50;;;;;;;;;;1787092;80;21618;-70
2022/04/08 03:39:53;;;;;;;7.50;3.05;;;;;;;;;;1786836;80;21099;-71
2022/04/08 03:42:19;;;;;;;11.70;2.77;;;;;;;;;;1787063;80;20962;-70
2022/04/08 03:44:46;;;;;;;7.10;3.00;;;;;;;;;;1786734;80;22160;-71
2022/04/08 03:47:12;;;;;;;6.45;2.55;;;;;;;;;;1787124;80;21072;-71
2022/04/08 03:49:38;;;;;;;10.75;3.80;;;;;;;;;;1786705;80;21087;-71
2022/04/08 03:52:06;;;;;;;6.50;2.87;;;;;;;;;;1787051;80;21083;-71
2022/04/08 03:54:32;;;;;;;10.00;3.80;;;;;;;;;;1787170;80;21016;-71
2022/04/08 03:56:58;;;;;;;5.42;2.67;;;;;;;;;;1786904;80;21044;-71
2022/04/08 03:59:25;;;;;;;9.75;3.15;;;;;;;;;;1787175;80;21520;-71
2022/04/08 04:01:51;;;;;;;5.20;2.80;;;;;;;;;;1787175;80;21464;-72
2022/04/08 04:04:19;;;;;;;8.78;3.12;;;;;;;;;;1786849;79;21642;-72
2022/04/08 04:06:46;;;;;;;8.08;3.00;;;;;;;;;;1787152;80;21133;-71
2022/04/08 04:09:13;;;;;;;7.33;3.83;;;;;;;;;;1785141;80;21550;-71
2022/04/08 04:11:42;;;;;;;7.03;3.30;;;;;;;;;;1778375;81;21084;-71
2022/04/08 04:14:08;;;;;;;8.68;4.10;;;;;;;;;;1778699;81;21532;-71
2022/04/08 04:16:35;;;;;;;11.48;3.70;;;;;;;;;;1778814;81;21551;-70
2022/04/08 04:19:01;;;;;;;6.08;2.75;;;;;;;;;;1778770;81;21442;-70
2022/04/08 04:21:30;;;;;;;8.48;3.17;;;;;;;;;;1778721;81;21064;-70
2022/04/08 04:23:56;;;;;;;8.05;3.25;;;;;;;;;;1778917;81;21611;-71
2022/04/08 04:26:23;;;;;;;9.90;3.47;;;;;;;;;;1778637;81;21068;-71
2022/04/08 04:28:50;;;;;;;3.98;2.37;;;;;;;;;;1778938;81;21088;-71
2022/04/08 04:31:16;;;;;;;7.20;3.52;;;;;;;;;;1778786;81;21080;-71
2022/04/08 04:33:44;;;;;;;12.25;3.50;;;;;;;;;;1778645;81;21063;-71
2022/04/08 04:36:11;;;;;;;8.28;3.70;;;;;;;;;;1779092;81;21564;-71
2022/04/08 04:38:37;;;;;;;10.35;3.83;;;;;;;;;;1778656;81;21039;-71
2022/04/08 04:41:04;;;;;;;12.35;4.15;;;;;;;;;;1779025;81;21119;-71
2022/04/08 04:43:31;;;;;;;14.70;4.30;;;;;;;;;;1778758;81;21041;-70
2022/04/08 04:45:57;;;;;;;15.00;5.75;;;;;;;;;;1778594;81;21101;-71
2022/04/08 04:48:25;;;;;;;16.50;6.80;;;;;;;;;;1778970;81;21064;-71
2022/04/08 04:50:51;;;;;;;13.05;5.83;;;;;;;;;;1778666;81;21049;-71
2022/04/08 04:53:20;;;;;;;13.10;5.15;;;;;;;;;;1779055;81;21484;-71
2022/04/08 04:55:46;;;;;;;18.48;6.50;;;;;;;;;;1778476;81;21115;-71
2022/04/08 04:58:13;;;;;;;8.35;3.62;;;;;;;;;;1778681;81;21028;-71
2022/04/08 05:00:39;;;;;;;7.97;3.17;;;;;;;;;;1778979;81;21040;-71
2022/04/08 05:03:06;;;;;;;11.22;3.25;;;;;;;;;;1778606;79;21099;-71
2022/04/08 05:05:32;;;;;;;4.42;2.75;;;;;;;;;;1778675;81;21552;-71
2022/04/08 05:08:06;;;;;;;10.35;3.10;;;;;;;;;;1778765;81;21534;-71
2022/04/08 05:10:33;;;;;;;6.62;2.75;;;;;;;;;;1783847;80;21068;-71
2022/04/08 05:12:59;;;;;;;9.28;3.70;;;;;;;;;;1786964;80;21063;-71
2022/04/08 05:15:26;;;;;;;11.33;3.80;;;;;;;;;;1786892;80;21060;-70
2022/04/08 05:17:54;;;;;;;7.10;3.00;;;;;;;;;;1786785;80;21095;-71
2022/04/08 05:20:20;;;;;;;4.85;2.67;;;;;;;;;;1786963;80;21027;-70
2022/04/08 05:22:46;;;;;;;10.43;3.27;;;;;;;;;;1786892;80;21020;-70
2022/04/08 05:25:12;;;;;;;8.80;2.72;;;;;;;;;;1787169;80;21061;-70
2022/04/08 05:27:41;;;;;;;9.73;2.87;;;;;;;;;;1786868;80;21078;-70
2022/04/08 05:30:08;;;;;;;6.30;2.67;;;;;;;;;;1786895;80;21503;-70
2022/04/08 05:32:35;;;;;;;6.85;2.80;;;;;;;;;;1787138;80;22126;-70
2022/04/08 05:35:02;;;;;;;9.03;3.12;;;;;;;;;;1786945;80;21441;-70
2022/04/08 05:37:29;;;;;;;9.73;2.95;;;;;;;;;;1786986;80;21076;-71
2022/04/08 05:39:55;;;;;;;10.80;3.12;;;;;;;;;;1786992;80;21045;-70
2022/04/08 05:42:22;;;;;;;8.80;3.35;;;;;;;;;;1786962;80;21504;-70
2022/04/08 05:44:48;;;;;;;10.48;3.33;;;;;;;;;;1787018;80;21557;-71
2022/04/08 05:47:15;;;;;;;7.55;2.98;;;;;;;;;;1786990;80;21080;-71
2022/04/08 05:49:41;;;;;;;7.40;3.10;;;;;;;;;;1786704;80;21596;-71
2022/04/08 05:52:08;;;;;;;9.33;3.55;;;;;;;;;;1787429;80;21531;-71
2022/04/08 05:54:34;;;;;;;8.33;2.47;;;;;;;;;;1786919;80;21591;-71
2022/04/08 05:57:02;;;;;;;7.25;3.08;;;;;;;;;;1787375;80;21056;-70
2022/04/08 05:59:29;;;;;;;12.85;3.45;;;;;;;;;;1787064;80;21068;-71
2022/04/08 06:01:55;;;;;;;8.48;3.00;;;;;;;;;;1787377;80;21037;-70
2022/04/08 06:04:21;;;;;;;10.23;5.00;;;;;;;;;;1787089;79;21072;-71
2022/04/08 06:06:48;;;;;;;6.45;2.90;;;;;;;;;;1787123;80;21060;-71
2022/04/08 06:09:16;;;;;;;9.95;3.22;;;;;;;;;;1787404;80;21540;-71
2022/04/08 06:11:46;;;;;;;9.43;3.15;;;;;;;;;;1778963;80;21033;-70
2022/04/08 06:14:12;;;;;;;7.12;3.35;;;;;;;;;;1779158;81;21104;-71
2022/04/08 06:16:39;;;;;;;8.53;2.90;;;;;;;;;;1778777;81;21033;-70
2022/04/08 06:19:06;;;;;;;11.22;3.55;;;;;;;;;;1778830;81;21538;-70
2022/04/08 06:21:33;;;;;;;8.43;2.72;;;;;;;;;;1778984;81;21576;-71
2022/04/08 06:23:59;;;;;;;10.75;2.90;;;;;;;;;;1778799;81;21105;-71
2022/04/08 06:26:25;;;;;;;9.43;3.25;;;;;;;;;;1778789;81;21445;-71
2022/04/08 06:28:51;;;;;;;7.55;2.70;;;;;;;;;;1778675;81;21076;-71
2022/04/08 06:31:18;;;;;;;9.30;2.87;;;;;;;;;;1778940;81;21100;-71
2022/04/08 06:33:45;;;;;;;8.68;3.33;;;;;;;;;;1778575;81;21025;-71
2022/04/08 06:36:11;;;;;;;10.90;3.02;;;;;;;;;;1778759;81;21095;-70
2022/04/08 06:38:37;;;;;;;9.70;2.98;;;;;;;;;;1778948;81;21033;-71
2022/04/08 06:41:04;;;;;;;6.95;2.52;;;;;;;;;;1778690;81;21049;-71
2022/04/08 06:43:30;;;;;;;6.25;3.25;;;;;;;;;;1778653;81;21103;-71
2022/04/08 06:45:57;;;;;;;7.83;3.20;;;;;;;;;;1778745;81;21029;-71
2022/04/08 06:48:23;;;;;;;7.53;2.87;;;;;;;;;;1778806;81;21029;-71
2022/04/08 06:50:49;;;;;;;6.40;2.33;;;;;;;;;;1778725;81;21056;-71
2022/04/08 06:53:15;;;;;;;13.38;3.83;;;;;;;;;;1778571;81;21054;-71
2022/04/08 06:55:42;;;;;;;8.40;2.50;;;;;;;;;;1778832;81;21029;-71
2022/04/08 06:58:08;;;;;;;11.85;3.15;;;;;;;;;;1778567;81;21029;-71
2022/04/08 07:00:35;;;;;;;14.38;3.40;;;;;;;;;;1778695;81;21615;-71
2022/04/08 07:03:01;;;;;;;8.80;2.70;;;;;;;;;;1778534;79;21095;-70
2022/04/08 07:05:29;;;;;;;9.00;3.05;;;;;;;;;;1778874;81;21033;-71
2022/04/08 07:07:57;;;;;;;8.40;3.42;;;;;;;;;;1778736;81;21115;-71
2022/04/08 07:10:24;;;;;;;8.93;3.65;;;;;;;;;;1778727;81;21072;-71
2022/04/08 07:12:50;;;;;;;10.82;3.00;;;;;;;;;;1778673;81;21100;-71
2022/04/08 07:15:18;;;;;;;8.60;2.92;;;;;;;;;;1778520;81;21611;-73
2022/04/08 07:17:46;;;;;;;8.55;2.95;;;;;;;;;;1778820;81;21591;-73
2022/04/08 07:20:14;;;;;;;10.43;3.87;;;;;;;;;;1778680;81;21037;-71
2022/04/08 07:22:41;;;;;;;10.08;3.45;;;;;;;;;;1778869;81;21032;-70
2022/04/08 07:25:08;;;;;;;5.95;2.70;;;;;;;;;;1778813;81;21523;-70
2022/04/08 07:27:52;;;;;;;11.95;4.12;;;;;;;;;;1779102;81;21001;-70
2022/04/08 07:30:19;;;;;;;6.83;2.90;;;;;;;;;;1778478;81;21128;-71
2022/04/08 07:32:46;;;;;;;9.50;3.52;;;;;;;;;;1778799;81;21104;-71
2022/04/08 07:35:13;;;;;;;12.13;4.78;;;;;;;;;;1778877;81;21028;-70
2022/04/08 07:37:40;;;;;;;13.28;4.10;;;;;;;;;;1778674;81;21103;-70
2022/04/08 07:40:07;;;;;;;9.78;4.25;;;;;;;;;;1778758;81;21103;-70
2022/04/08 07:42:33;;;;;;;11.90;4.30;;;;;;;;;;1779072;81;21029;-70
2022/04/08 07:44:59;;;;;;;13.28;3.92;;;;;;;;;;1778693;81;21056;-70
2022/04/08 07:47:27;;;;;;;10.15;3.55;;;;;;;;;;1779019;81;21103;-70
2022/04/08 07:49:59;;;;;;;12.68;4.20;;;;;;;;;;1778636;81;21116;-70
2022/04/08 07:52:26;;;;;;;9.03;3.20;;;;;;;;;;1779006;81;21037;-70
2022/04/08 07:54:52;;;;;;;9.78;3.52;;;;;;;;;;1778598;81;21076;-70
2022/04/08 07:57:18;;;;;;;12.28;3.83;;;;;;;;;;1778731;81;21077;-71
2022/04/08 07:59:45;;;;;;;16.35;4.47;;;;;;;;;;1778839;81;21112;-70
2022/04/08 08:02:11;;;;;;;12.95;4.00;;;;;;;;;;1778972;79;21029;-70
2022/04/08 08:04:37;;;;;;;11.83;4.35;;;;;;;;;;1779034;81;21087;-70
2022/04/08 08:07:04;;;;;;;9.08;3.85;;;;;;;;;;1778526;81;21016;-71
2022/04/08 08:09:30;;;;;;;9.98;4.12;;;;;;;;;;1778643;81;21044;-70
2022/04/08 08:11:57;;;;;;;8.00;3.33;;;;;;;;;;1785206;80;21107;-71
2022/04/08 08:14:23;;;;;;;8.75;3.98;;;;;;;;;;1786915;80;21079;-71
2022/04/08 08:16:49;;;;;;;8.58;3.58;;;;;;;;;;1787119;80;21098;-70
2022/04/08 08:19:17;;;;;;;11.88;3.95;;;;;;;;;;1786765;80;21036;-70
2022/04/08 08:21:44;;;;;;;8.63;4.03;;;;;;;;;;1786849;80;20989;-70
2022/04/08 08:24:10;;;;;;;7.60;3.87;;;;;;;;;;1787161;80;21076;-70
2022/04/08 08:26:36;;;;;;;8.93;3.77;;;;;;;;;;1786941;80;21580;-70
2022/04/08 08:29:03;;;;;;;13.72;4.67;;;;;;;;;;1787172;80;21598;-70
2022/04/08 08:31:29;;;;;;;7.00;3.30;;;;;;;;;;1786942;80;21483;-70
2022/04/08 08:33:56;;;;;;;10.95;4.72;;;;;;;;;;1786900;80;21540;-70
2022/04/08 08:36:24;;;;;;;9.38;3.90;;;;;;;;;;1787015;80;21282;-70
2022/04/08 08:38:51;;;;;;;11.38;4.03;;;;;;;;;;1786731;80;21059;-71
2022/04/08 08:41:20;;;;;;;11.30;4.95;;;;;;;;;;1787032;80;21511;-71
2022/04/08 08:43:47;;;;;;;12.05;3.95;;;;;;;;;;1786726;80;21041;-71
2022/04/08 08:46:16;;;;;;;9.58;4.67;;;;;;;;;;1787021;80;20993;-71
2022/04/08 08:48:45;;;;;;;6.25;3.65;;;;;;;;;;1786812;80;21068;-71
2022/04/08 08:51:11;;;;;;;8.23;3.80;;;;;;;;;;1787215;80;21115;-71
2022/04/08 08:53:37;;;;;;;12.40;4.75;;;;;;;;;;1786913;80;21005;-71
2022/04/08 08:56:05;;;;;;;11.43;3.92;;;;;;;;;;1787006;80;21095;-70
2022/04/08 08:58:34;;;;;;;11.63;4.80;;;;;;;;;;1787172;80;21085;-70
2022/04/08 09:01:00;;;;;;;9.80;4.15;;;;;;;;;;1786660;80;21067;-71
2022/04/08 09:03:29;;;;;;;12.25;5.90;;;;;;;;;;1787040;79;21092;-70
2022/04/08 09:05:58;;;;;;;15.18;4.60;;;;;;;;;;1786796;80;21059;-71
2022/04/08 09:08:26;;;;;;;12.35;4.62;;;;;;;;;;1785549;80;21067;-71
2022/04/08 09:10:53;;;;;;;9.93;3.52;;;;;;;;;;1786061;80;21048;-70
2022/04/08 09:13:21;;;;;;;11.33;4.42;;;;;;;;;;1787296;80;21488;-71
2022/04/08 09:15:54;;;;;;;8.90;3.52;;;;;;;;;;1786926;80;21067;-71
2022/04/08 09:18:21;;;;;;;12.18;4.33;;;;;;;;;;1786974;80;21544;-72
2022/04/08 09:20:49;;;;;;;9.85;4.67;;;;;;;;;;1787056;80;21084;-71
2022/04/08 09:23:19;;;;;;;12.33;4.60;;;;;;;;;;1786852;80;21572;-72
2022/04/08 09:25:49;;;;;;;9.10;3.75;;;;;;;;;;1787188;80;20981;-72
2022/04/08 09:28:17;;;;;;;9.28;4.47;;;;;;;;;;1787004;80;21029;-71
2022/04/08 09:30:58;;;;;;;10.75;3.95;;;;;;;;;;1787225;80;21052;-72
2022/04/08 09:33:26;;;;;;;9.63;4.45;;;;;;;;;;1787065;80;21529;-71
2022/04/08 09:35:56;;;;;;;8.53;4.10;;;;;;;;;;1787201;80;21016;-71
2022/04/08 09:38:27;;;;;;;9.60;5.12;;;;;;;;;;1787271;80;21009;-71
2022/04/08 09:41:04;;;;;;;8.98;4.25;;;;;;;;;;1787347;80;21916;-71
2022/04/08 09:43:35;;;;;;;12.75;5.42;;;;;;;;;;1787291;80;21024;-70
2022/04/08 09:46:15;;;;;;;12.93;6.00;;;;;;;;;;1787185;80;21012;-70
2022/04/08 09:48:42;;;;;;;11.60;5.28;;;;;;;;;;1787318;80;21590;-70
2022/04/08 09:51:10;;;;;;;10.72;5.97;;;;;;;;;;1787183;80;21013;-71
2022/04/08 09:53:37;;;;;;;14.55;6.22;;;;;;;;;;1787226;80;21001;-71
2022/04/08 09:56:06;;;;;;;15.43;6.00;;;;;;;;;;1787226;80;21036;-71
2022/04/08 09:58:33;;;;;;;10.80;5.12;;;;;;;;;;1787296;80;22095;-72
2022/04/08 10:01:00;;;;;;;15.32;6.70;;;;;;;;;;1787120;80;20988;-72
2022/04/08 10:03:30;;;;;;;9.48;4.65;;;;;;;;;;1787216;80;21068;-73
2022/04/08 10:05:57;;;;;;;13.43;5.70;;;;;;;;;;1787193;80;21350;-72
2022/04/08 10:08:24;;;;;;;12.37;4.95;;;;;;;;;;1787161;80;21016;-71
2022/04/08 10:10:54;;;;;;;14.55;6.05;;;;;;;;;;1786236;80;21586;-71
2022/04/08 10:13:22;;;;;;;11.40;5.00;;;;;;;;;;1778890;81;21090;-70
2022/04/08 10:16:01;;;;;;;11.65;6.55;;;;;;;;;;1778531;81;21125;-71
2022/04/08 10:18:38;;;;;;;10.20;5.00;;;;;;;;;;1779046;81;21021;-71
2022/04/08 10:21:07;;;;;;;12.55;6.10;;;;;;;;;;1778781;81;21029;-71
2022/04/08 10:23:40;;;;;;;9.10;4.70;;;;;;;;;;1779074;81;21025;-71
2022/04/08 10:26:17;;;;;;;16.15;5.87;;;;;;;;;;1778880;81;21080;-71
2022/04/08 10:28:44;;;;;;;13.00;4.90;;;;;;;;;;1778759;81;21056;-70
2022/04/08 10:31:15;;;;;;;14.35;5.58;;;;;;;;;;1779035;81;21048;-71
2022/04/08 10:33:46;;;;;;;10.95;5.05;;;;;;;;;;1779091;81;21468;-71
2022/04/08 10:36:15;;;;;;;9.90;5.25;;;;;;;;;;1778841;81;21052;-71
2022/04/08 10:38:42;;;;;;;8.68;5.05;;;;;;;;;;1779115;81;21469;-71
2022/04/08 10:41:11;;;;;;;10.45;5.92;;;;;;;;;;1778795;81;21049;-70
2022/04/08 10:43:46;;;;;;;8.70;4.30;;;;;;;;;;1779099;81;21005;-70
2022/04/08 10:46:15;;;;;;;9.70;4.62;;;;;;;;;;1779152;81;21533;-71
2022/04/08 10:48:42;;;;;;;7.37;4.35;;;;;;;;;;1757101;81;21544;-71
2022/04/08 10:51:12;;;;;;;8.98;5.10;;;;;;;;;;1779067;81;21060;-71
2022/04/08 10:53:41;;;;;;;11.22;4.62;;;;;;;;;;1778959;81;20989;-71
2022/04/08 10:56:09;;;;;;;6.17;3.80;;;;;;;;;;1779053;81;21020;-71
2022/04/08 10:58:41;;;;;;;8.15;4.22;;;;;;;;;;1779005;81;21040;-70
2022/04/08 11:01:27;;;;;;;9.30;4.62;;;;;;;;;;1779039;81;21028;-71
2022/04/08 11:03:59;;;;;;;9.05;5.20;;;;;;;;;;1778600;79;21595;-71
2022/04/08 11:06:26;;;;;;;13.80;4.78;;;;;;;;;;1778862;81;21035;-71
2022/04/08 11:08:53;;;;;;;12.95;6.50;;;;;;;;;;1778827;81;21084;-71
2022/04/08 11:11:29;;;;;;;9.88;5.25;;;;;;;;;;1780331;80;21084;-70
2022/04/08 11:13:58;;;;;;;8.53;4.37;;;;;;;;;;1787183;80;21028;-70
2022/04/08 11:16:26;;;;;;;6.85;3.72;;;;;;;;;;1787180;80;21574;-71
2022/04/08 11:18:55;;;;;;;7.65;4.45;;;;;;;;;;1786852;80;21004;-71
2022/04/08 11:21:24;;;;;;;4.92;2.83;;;;;;;;;;1787106;80;21001;-71
2022/04/08 11:24:01;;;;;;;3.45;2.20;;;;;;;;;;1787121;80;20980;-71
2022/04/08 11:26:29;;;;;;;5.00;3.00;;;;;;;;;;1787257;80;20969;-70
2022/04/08 11:28:56;;;;;;;5.30;2.50;;;;;;;;;;1787007;80;21008;-71
2022/04/08 11:31:25;;;;;;;4.97;2.95;;;;;;;;;;1787143;80;21001;-70
2022/04/08 11:33:53;;;;;;;4.83;3.33;;;;;;;;;;1787224;80;21475;-70
2022/04/08 11:36:22;;;;;;;6.80;3.10;;;;;;;;;;1786896;80;20985;-72
2022/04/08 11:38:51;;;;;;;6.30;3.30;;;;;;;;;;1787162;80;20985;-71
2022/04/08 11:41:20;;;;;;;4.70;3.33;;;;;;;;;;1787161;80;21015;-70
2022/04/08 11:43:47;;;;;;;6.03;3.42;;;;;;;;;;1787256;80;21551;-72
2022/04/08 11:46:15;;;;;;;6.08;3.62;;;;;;;;;;1786999;80;21048;-71
2022/04/08 11:48:43;;;;;;;4.33;2.70;;;;;;;;;;1787306;80;20980;-71
2022/04/08 11:51:11;;;;;;;4.65;3.10;;;;;;;;;;1786891;80;21060;-71
2022/04/08 11:53:51;;;;;;;5.28;2.80;;;;;;;;;;1787447;80;21540;-71
2022/04/08 11:56:20;;;;;;;4.22;2.72;;;;;;;;;;1788701;80;21510;-72
2022/04/08 11:59:04;;;;;;;4.78;2.80;;;;;;;;;;1787698;80;21060;-70
2022/04/08 12:01:32;;;;;;;7.20;3.60;;;;;;;;;;1787209;80;21072;-70
2022/04/08 12:04:00;;;;;;;5.00;2.95;;;;;;;;;;1786849;79;21064;-72
2022/04/08 12:06:45;;;;;;;7.83;3.12;;;;;;;;;;1787285;80;20987;-70
2022/04/08 12:09:14;;;;;;;5.22;3.50;;;;;;;;;;1787237;80;21044;-71
2022/04/08 12:11:43;;;;;;;7.05;3.30;;;;;;;;;;1785651;80;21512;-70
2022/04/08 12:14:11;;;;;;;8.40;3.77;;;;;;;;;;1778657;81;21004;-72
2022/04/08 12:16:39;;;;;;;6.17;3.37;;;;;;;;;;1778983;81;21036;-70
2022/04/08 12:19:08;;;;;;;5.35;3.40;;;;;;;;;;1778932;81;21496;-70
2022/04/08 12:21:39;;;;;;;4.25;2.80;;;;;;;;;;1757584;81;21068;-70
2022/04/08 12:24:07;;;;;;;3.52;2.20;;;;;;;;;;1778917;81;21001;-71
2022/04/08 12:26:36;;;;;;;4.12;1.60;;;;;;;;;;1778946;81;21048;-72
2022/04/08 12:29:09;;;;;;;2.50;1.50;;;;;;;;;;1778886;81;21079;-70
2022/04/08 12:31:46;;;;;;;4.00;1.80;;;;;;;;;;1779040;81;21009;-71
2022/04/08 12:34:14;;;;;;;1.72;1.42;;;;;;;;;;1778829;81;21024;-71
2022/04/08 12:36:42;;;;;;;2.62;1.30;;;;;;;;;;1778746;81;21107;-71
2022/04/08 12:39:11;;;;;;;3.10;1.45;;;;;;;;;;1778825;81;20962;-70
2022/04/08 12:41:39;;;;;;;2.45;1.40;;;;;;;;;;1778818;81;21009;-70
2022/04/08 12:44:08;;;;;;;2.90;1.35;;;;;;;;;;1778703;81;21025;-71
2022/04/08 12:46:36;;;;;;;2.77;1.67;;;;;;;;;;1778763;81;21055;-70
2022/04/08 12:49:02;;;;;;;1.80;1.30;;;;;;;;;;1778807;81;21023;-71
2022/04/08 12:51:30;;;;;;;1.70;1.30;;;;;;;;;;1778871;81;20985;-70
2022/04/08 12:53:58;;;;;;;6.17;3.58;;;;;;;;;;1778735;81;21055;-71
2022/04/08 12:56:26;;;;;;;3.95;1.98;;;;;;;;;;1778856;81;21017;-71
2022/04/08 12:58:53;;;;;;;4.45;2.30;;;;;;;;;;1778835;81;21020;-71
2022/04/08 13:01:20;;;;;;;3.22;1.80;;;;;;;;;;1778685;81;21481;-71
2022/04/08 13:03:48;;;;;;;1.98;1.52;;;;;;;;;;1778794;79;21547;-71
2022/04/08 13:06:15;;;;;;;2.75;1.32;;;;;;;;;;1778757;81;21524;-71
2022/04/08 13:08:42;;;;;;;1.35;1.10;;;;;;;;;;1778829;81;21425;-71
2022/04/08 13:11:09;;;;;;;2.08;1.07;;;;;;;;;;1778422;81;21064;-71
2022/04/08 13:13:39;;;;;;;2.15;1.22;;;;;;;;;;1756855;81;21024;-70
2022/04/08 13:16:07;;;;;;;1.32;1.10;;;;;;;;;;1778730;81;21005;-70
2022/04/08 13:18:36;;;;;;;2.05;1.10;;;;;;;;;;1778706;81;21021;-70
2022/04/08 13:21:04;;;;;;;2.80;1.30;;;;;;;;;;1778788;81;21009;-71
2022/04/08 13:23:33;;;;;;;0.82;0.82;;;;;;;;;;1778754;80;21033;-70
2022/04/08 13:27:24;;;;;;;5.37;2.30;;;;;;;;;;1801173;79;22940;-70
2022/04/08 13:29:51;;;;;;;2.87;1.75;;;;;;;;;;1762183;81;21028;-71
2022/04/08 13:32:19;;;;;;;3.08;1.50;;;;;;;;;;1761567;81;21560;-71
2022/04/08 13:34:46;;;;;;;3.95;2.70;;;;;;;;;;1761869;81;21048;-71
2022/04/08 13:37:13;;;;;;;7.15;3.20;;;;;;;;;;1761790;81;21598;-71
2022/04/08 13:39:41;;;;;;;9.65;4.47;;;;;;;;;;1761808;81;21048;-72
2022/04/08 13:42:08;;;;;;;7.53;3.12;;;;;;;;;;1761912;81;21001;-70
2022/04/08 13:44:35;;;;;;;7.15;3.85;;;;;;;;;;1761997;81;21087;-72
2022/04/08 13:47:03;;;;;;;6.85;4.05;;;;;;;;;;1761966;81;21064;-71
2022/04/08 13:49:30;;;;;;;5.25;2.80;;;;;;;;;;1762060;81;21001;-71
2022/04/08 13:51:58;;;;;;;3.62;2.10;;;;;;;;;;1761872;81;21013;-71
2022/04/08 13:54:26;;;;;;;4.90;2.67;;;;;;;;;;1762002;81;21051;-71
2022/04/08 13:56:53;;;;;;;15.98;6.83;;;;;;;;;;1761893;81;22102;-71
2022/04/08 13:59:22;;;;;;;10.53;5.00;;;;;;;;;;1761962;81;20977;-70
2022/04/08 14:01:49;;;;;;;9.28;4.62;;;;;;;;;;1758739;81;21012;-70
2022/04/08 14:04:16;;;;;;;8.15;4.08;;;;;;;;;;1730302;83;21036;-71
2022/04/08 14:06:44;;;;;;;9.85;5.47;;;;;;;;;;1730019;83;21017;-70
2022/04/08 14:09:12;;;;;;;7.10;3.65;;;;;;;;;;1730182;82;21001;-72
2022/04/08 14:11:41;;;;;;;6.33;4.30;;;;;;;;;;1729971;82;21067;-71
2022/04/08 14:14:10;;;;;;;5.78;3.12;;;;;;;;;;1730122;82;21091;-71
2022/04/08 14:16:38;;;;;;;4.67;2.80;;;;;;;;;;1730239;82;21049;-70
2022/04/08 14:19:06;;;;;;;5.62;2.45;;;;;;;;;;1730224;82;21064;-70
2022/04/08 14:21:32;;;;;;;5.58;2.33;;;;;;;;;;1730014;83;21564;-72
2022/04/08 14:24:00;;;;;;;3.15;1.95;;;;;;;;;;1730113;83;21496;-71
2022/04/08 14:26:28;;;;;;;3.98;2.67;;;;;;;;;;1730077;82;21045;-71
2022/04/08 14:28:57;;;;;;;3.42;2.17;;;;;;;;;;1730342;83;21492;-70
2022/04/08 14:31:24;;;;;;;4.20;2.33;;;;;;;;;;1730420;83;21048;-71
2022/04/08 14:33:52;;;;;;;4.50;2.37;;;;;;;;;;1714624;83;21534;-71
2022/04/08 14:36:20;;;;;;;3.87;2.05;;;;;;;;;;1730342;83;21084;-72
2022/04/08 14:38:48;;;;;;;3.95;2.30;;;;;;;;;;1729828;83;21516;-70
2022/04/08 14:41:17;;;;;;;2.62;1.80;;;;;;;;;;1729802;83;21033;-71
2022/04/08 14:43:44;;;;;;;3.30;2.12;;;;;;;;;;1729937;82;20981;-71
2022/04/08 14:46:12;;;;;;;2.17;1.70;;;;;;;;;;1729788;83;21104;-71
2022/04/08 14:48:40;;;;;;;2.83;1.82;;;;;;;;;;1729852;83;21052;-71